WTTO2: Illinois River, Watts, OK

                                SHEF ID:       WTTO2     Illinois River near Watts, OK
STATION TYPE: Stream Gauge
Regulating: Stage = 13.00, Flow = 11165

PRECIP STAGE STAGE(2) RIV-FLOW WTR-TEMP VOLTAGE BAT-LOAD
in ft ft cfs F volt volt
Ccp-Rev Ccp-Rev Ccp-Rev Ccp-Rev Ccp-Rev Ccp-Rev Ccp-Rev
(America/Chicago)
05/07 00:00 0.00 3.76 ---- 811 62.37 ---- 12.85
05/07 01:00 0.00 3.74 ---- 801 62.17 ---- 12.79
05/07 02:00 0.00 3.74 ---- 801 61.95 ---- 12.73
05/07 03:00 0.00 3.72 ---- 791 61.70 ---- 12.70
05/07 04:00 0.00 3.71 ---- 786 61.45 ---- 12.67
05/07 05:00 0.00 3.70 ---- 781 61.14 ---- 12.63
05/07 06:00 0.00 3.69 ---- 776 60.89 ---- 12.61
05/07 07:00 0.00 3.68 ---- 771 60.66 ---- 12.60
05/07 08:00 0.00 3.67 ---- 766 60.57 ---- 13.12
05/07 09:00 0.00 3.65 ---- 757 60.58 ---- 13.57
05/07 10:00 0.00 3.63 ---- 747 60.62 ---- 13.60
05/07 11:00 0.00 3.60 ---- 732 60.85 ---- 13.65
05/07 12:00 0.00 3.61 ---- 737 61.14 ---- 13.67
05/07 13:00 0.00 3.60 ---- 732 61.61 ---- 13.65
05/07 14:00 0.00 3.59 ---- 728 62.13 ---- 13.65
05/07 15:00 0.00 3.57 ---- 718 62.69 ---- 13.55
05/07 16:00 0.00 3.57 ---- 718 63.23 ---- 13.39
05/07 17:00 0.00 3.55 ---- 709 63.75 ---- 13.39
05/07 18:00 0.00 3.55 ---- 709 64.13 ---- 13.33
05/07 19:00 0.00 3.54 ---- 704 64.40 ---- 13.30
05/07 20:00 0.00 3.53 ---- 699 64.67 ---- 13.27
05/07 21:00 0.00 3.53 ---- 699 64.85 ---- 13.09
05/07 22:00 0.00 3.52 ---- 695 64.90 ---- 12.96
05/07 23:00 ---- ---- ---- ---- ---- ---- ----
Data processed at Fri 08May2026 03:35 GMT

NOTICE: If you are parsing this page

Please convert to using our Data API. Starting early 2026 we will be migrating to: https://water.usace.army.mil with modern pages rendered in JavaScript. When this migration completes you will no longer be able to scrape this page! CWMSDataAPI (CDA)

Timeseries IDs (TSIDs)

TSIDs used from left to right in the data table
WATT.Precip-Inc.Total.1Hour.1Hour.Ccp-Rev
WATT.Stage.Inst.1Hour.0.Ccp-Rev
WATT.Stage-Alt.Inst.1Hour.0.Ccp-Rev
WATT.Flow.Inst.1Hour.0.Ccp-Rev
WATT.Temp-Water.Inst.1Hour.0.Ccp-Rev
WATT.Volt-Battery.Inst.1Hour.0.Ccp-Rev
WATT.Volt-Battery Load.Inst.1Hour.0.Ccp-Rev

                            

All information presented herein is the property of the government of the United States of America and may be revised or deleted at any time without prior notice. Dissemination of this information without the expressed written consent of the Public Affairs Office, Tulsa District U.S. Army Corps of Engineers is strictly prohibited. These data are gathered electronically and, as presented, have NOT undergone any form of quality control. These data are NOT guaranteed to be valid or correct.